sensor_id;sensor_type;location;lat;lon;timestamp;pressure;altitude;pressure_sealevel;temperature;humidity
8477;BME280;4275;42.854;23.222;2023-08-01T00:04:26;42770.66;;;-141.02;100.00
8477;BME280;4275;42.854;23.222;2023-08-01T00:06:56;42772.59;;;-141.02;100.00
8477;BME280;4275;42.854;23.222;2023-08-01T00:09:23;42743.78;;;-141.02;100.00
8477;BME280;4275;42.854;23.222;2023-08-01T00:11:50;42340.69;;;-141.02;100.00
8477;BME280;4275;42.854;23.222;2023-08-01T00:14:17;42156.41;;;-141.02;100.00
8477;BME280;4275;42.854;23.222;2023-08-01T00:16:45;42102.66;;;-141.02;100.00
8477;BME280;4275;42.854;23.222;2023-08-01T00:19:13;42288.84;;;-141.02;100.00
8477;BME280;4275;42.854;23.222;2023-08-01T00:42:35;42588.31;;;-141.02;100.00
8477;BME280;4275;42.854;23.222;2023-08-01T00:45:29;42640.13;;;-141.02;100.00
8477;BME280;4275;42.854;23.222;2023-08-01T00:47:56;42595.97;;;-141.02;100.00
8477;BME280;4275;42.854;23.222;2023-08-01T00:50:23;42469.28;;;-141.02;100.00
8477;BME280;4275;42.854;23.222;2023-08-01T00:59:28;42632.44;;;-141.02;100.00
8477;BME280;4275;42.854;23.222;2023-08-01T01:02:08;42438.56;;;-141.02;100.00
8477;BME280;4275;42.854;23.222;2023-08-01T01:04:37;42883.94;;;-141.02;100.00
8477;BME280;4275;42.854;23.222;2023-08-01T01:07:12;43425.34;;;-141.02;100.00
8477;BME280;4275;42.854;23.222;2023-08-01T01:09:50;43795.94;;;-141.02;100.00
8477;BME280;4275;42.854;23.222;2023-08-01T01:12:30;43673.06;;;-141.02;100.00
8477;BME280;4275;42.854;23.222;2023-08-01T01:14:58;43517.50;;;-141.02;100.00
8477;BME280;4275;42.854;23.222;2023-08-01T01:17:25;43408.06;;;-141.02;100.00
8477;BME280;4275;42.854;23.222;2023-08-01T01:19:52;42960.72;;;-141.02;100.00
8477;BME280;4275;42.854;23.222;2023-08-01T01:22:21;42993.34;;;-141.02;100.00
8477;BME280;4275;42.854;23.222;2023-08-01T01:24:48;43146.94;;;-141.02;100.00
8477;BME280;4275;42.854;23.222;2023-08-01T01:27:16;43411.91;;;-141.02;100.00
8477;BME280;4275;42.854;23.222;2023-08-01T01:29:43;43377.34;;;-141.02;100.00
8477;BME280;4275;42.854;23.222;2023-08-01T01:32:39;43342.78;;;-141.02;100.00
8477;BME280;4275;42.854;23.222;2023-08-01T01:35:07;43623.13;;;-141.02;100.00
8477;BME280;4275;42.854;23.222;2023-08-01T01:37:35;43788.28;;;-141.02;100.00
8477;BME280;4275;42.854;23.222;2023-08-01T01:40:17;44245.31;;;-141.02;100.00
8477;BME280;4275;42.854;23.222;2023-08-01T01:42:45;44775.44;;;-141.02;100.00
8477;BME280;4275;42.854;23.222;2023-08-01T01:45:12;44965.63;;;-141.02;100.00
8477;BME280;4275;42.854;23.222;2023-08-01T01:47:39;44800.41;;;-141.02;100.00
8477;BME280;4275;42.854;23.222;2023-08-01T01:50:06;44479.66;;;-141.02;100.00
8477;BME280;4275;42.854;23.222;2023-08-01T01:52:35;44032.16;;;-141.02;100.00
8477;BME280;4275;42.854;23.222;2023-08-01T01:55:08;43770.97;;;-141.02;100.00
8477;BME280;4275;42.854;23.222;2023-08-01T01:57:35;43452.22;;;-141.02;100.00
8477;BME280;4275;42.854;23.222;2023-08-01T02:00:03;43834.34;;;-141.02;100.00
8477;BME280;4275;42.854;23.222;2023-08-01T02:02:30;44108.97;;;-141.02;100.00
8477;BME280;4275;42.854;23.222;2023-08-01T02:04:57;44130.09;;;-141.02;100.00
8477;BME280;4275;42.854;23.222;2023-08-01T02:07:24;44418.19;;;-141.02;100.00
8477;BME280;4275;42.854;23.222;2023-08-01T02:10:14;44836.91;;;-141.02;100.00
8477;BME280;4275;42.854;23.222;2023-08-01T02:12:43;45134.66;;;-141.02;100.00
8477;BME280;4275;42.854;23.222;2023-08-01T02:15:26;46081.88;;;-141.02;100.00
8477;BME280;4275;42.854;23.222;2023-08-01T02:17:53;47037.03;;;-141.02;100.00
8477;BME280;4275;42.854;23.222;2023-08-01T02:20:20;48027.09;;;-141.02;100.00
8477;BME280;4275;42.854;23.222;2023-08-01T02:22:47;49084.75;;;-141.02;100.00
8477;BME280;4275;42.854;23.222;2023-08-01T02:25:15;50294.72;;;-141.02;100.00
8477;BME280;4275;42.854;23.222;2023-08-01T02:27:42;51085.59;;;-141.02;100.00
8477;BME280;4275;42.854;23.222;2023-08-01T02:30:17;52167.31;;;-141.02;100.00
8477;BME280;4275;42.854;23.222;2023-08-01T02:32:44;53049.09;;;-141.02;100.00
8477;BME280;4275;42.854;23.222;2023-08-01T02:35:11;53773.19;;;-141.02;100.00
8477;BME280;4275;42.854;23.222;2023-08-01T02:37:39;55526.28;;;-141.02;100.00
8477;BME280;4275;42.854;23.222;2023-08-01T02:40:40;57746.88;;;-141.02;100.00
8477;BME280;4275;42.854;23.222;2023-08-01T02:43:07;60462.94;;;-141.02;100.00
8477;BME280;4275;42.854;23.222;2023-08-01T02:45:34;63675.59;;;-141.02;100.00
8477;BME280;4275;42.854;23.222;2023-08-01T02:48:01;66148.94;;;-141.02;100.00
8477;BME280;4275;42.854;23.222;2023-08-01T02:50:34;67881.38;;;-141.02;100.00
8477;BME280;4275;42.854;23.222;2023-08-01T02:53:20;70605.50;;;-141.02;100.00
8477;BME280;4275;42.854;23.222;2023-08-01T02:55:50;73083.88;;;-141.02;100.00
8477;BME280;4275;42.854;23.222;2023-08-01T02:58:25;75812.16;;;-141.02;100.00
8477;BME280;4275;42.854;23.222;2023-08-01T03:00:52;78294.28;;;-141.02;100.00
8477;BME280;4275;42.854;23.222;2023-08-01T03:03:19;80281.31;;;-141.02;100.00
8477;BME280;4275;42.854;23.222;2023-08-01T03:05:47;83761.31;;;-141.02;100.00
8477;BME280;4275;42.854;23.222;2023-08-01T03:08:14;86995.94;;;-141.02;100.00
8477;BME280;4275;42.854;23.222;2023-08-01T03:10:41;89486.16;;;-141.02;100.00
8477;BME280;4275;42.854;23.222;2023-08-01T03:13:09;91230.38;;;-141.02;100.00
8477;BME280;4275;42.854;23.222;2023-08-01T03:15:37;92227.47;;;-141.02;100.00
8477;BME280;4275;42.854;23.222;2023-08-01T03:18:04;93224.84;;;-141.02;100.00
8477;BME280;4275;42.854;23.222;2023-08-01T03:20:31;93723.63;;;-141.02;100.00
8477;BME280;4275;42.854;23.222;2023-08-01T03:22:58;93723.63;;;-141.02;100.00
8477;BME280;4275;42.854;23.222;2023-08-01T03:25:25;94222.50;;;-141.02;100.00
8477;BME280;4275;42.854;23.222;2023-08-01T03:27:52;94721.44;;;-141.02;100.00
8477;BME280;4275;42.854;23.222;2023-08-01T03:30:21;95470.00;;;-141.02;100.00
8477;BME280;4275;42.854;23.222;2023-08-01T03:32:48;96218.69;;;-141.02;100.00
8477;BME280;4275;42.854;23.222;2023-08-01T03:35:15;96717.94;;;-141.02;100.00
8477;BME280;4275;42.854;23.222;2023-08-01T03:41:06;96967.56;;;-141.02;100.00
8477;BME280;4275;42.854;23.222;2023-08-01T03:43:33;97716.59;;;-141.02;100.00
8477;BME280;4275;42.854;23.222;2023-08-01T03:52:44;97217.22;;;-141.02;100.00
8477;BME280;4275;42.854;23.222;2023-08-01T03:55:12;93973.06;;;-141.02;100.00
8477;BME280;4275;42.854;23.222;2023-08-01T03:57:39;86249.22;;;-141.02;100.00
8477;BME280;4275;42.854;23.222;2023-08-01T04:00:07;79287.66;;;-141.02;100.00
8477;BME280;4275;42.854;23.222;2023-08-01T04:02:51;74819.81;;;-141.02;100.00
8477;BME280;4275;42.854;23.222;2023-08-01T04:05:18;71348.81;;;-141.02;100.00
8477;BME280;4275;42.854;23.222;2023-08-01T04:07:46;68128.91;;;-141.02;100.00
8477;BME280;4275;42.854;23.222;2023-08-01T04:10:23;65654.13;;;-141.02;100.00
8477;BME280;4275;42.854;23.222;2023-08-01T04:12:50;63675.59;;;-141.02;100.00
8477;BME280;4275;42.854;23.222;2023-08-01T04:15:17;62933.94;;;-141.02;100.00
8477;BME280;4275;42.854;23.222;2023-08-01T04:17:44;61204.03;;;-141.02;100.00
8477;BME280;4275;42.854;23.222;2023-08-01T04:20:11;57993.72;;;-141.02;100.00
8477;BME280;4275;42.854;23.222;2023-08-01T04:22:39;56998.81;;;-141.02;100.00
8477;BME280;4275;42.854;23.222;2023-08-01T04:25:08;54414.59;;;-141.02;100.00
8477;BME280;4275;42.854;23.222;2023-08-01T04:27:35;53576.75;;;-141.02;100.00
8477;BME280;4275;42.854;23.222;2023-08-01T04:30:03;52694.81;;;-141.02;100.00
8477;BME280;4275;42.854;23.222;2023-08-01T04:32:30;52454.16;;;-141.02;100.00
8477;BME280;4275;42.854;23.222;2023-08-01T04:34:57;51139.47;;;-141.02;100.00
8477;BME280;4275;42.854;23.222;2023-08-01T04:37:24;49750.28;;;-141.02;100.00
8477;BME280;4275;42.854;23.222;2023-08-01T04:39:51;49100.13;;;-141.02;99.10
8477;BME280;4275;42.854;23.222;2023-08-01T04:42:20;48838.56;;;-141.02;98.59
8477;BME280;4275;42.854;23.222;2023-08-01T04:44:47;48457.81;;;-141.02;98.70
8477;BME280;4275;42.854;23.222;2023-08-01T04:47:14;47984.78;;;-141.02;93.48
8477;BME280;4275;42.854;23.222;2023-08-01T04:49:41;47980.94;;;-141.02;89.14
8477;BME280;4275;42.854;23.222;2023-08-01T04:52:11;47508.00;;;-141.02;88.01
8477;BME280;4275;42.854;23.222;2023-08-01T04:54:50;47335.00;;;-141.02;88.66
8477;BME280;4275;42.854;23.222;2023-08-01T05:00:27;46593.06;;;-141.02;83.03
8477;BME280;4275;42.854;23.222;2023-08-01T05:02:54;46266.34;;;-141.02;85.42
8477;BME280;4275;42.854;23.222;2023-08-01T05:05:21;46068.44;;;-141.02;89.09
8477;BME280;4275;42.854;23.222;2023-08-01T05:07:48;46145.28;;;-141.02;87.35
8477;BME280;4275;42.854;23.222;2023-08-01T05:10:15;45417.06;;;-141.02;89.85
8477;BME280;4275;42.854;23.222;2023-08-01T05:12:42;45613.03;;;-141.02;96.40
8477;BME280;4275;42.854;23.222;2023-08-01T05:15:09;45839.75;;;-141.02;93.88
8477;BME280;4275;42.854;23.222;2023-08-01T05:17:38;46362.44;;;-141.02;94.73
8477;BME280;4275;42.854;23.222;2023-08-01T05:20:06;45962.75;;;-141.02;97.52
8477;BME280;4275;42.854;23.222;2023-08-01T05:22:33;46097.25;;;-141.02;100.00
8477;BME280;4275;42.854;23.222;2023-08-01T05:25:01;46931.34;;;-141.02;100.00
8477;BME280;4275;42.854;23.222;2023-08-01T05:27:29;46470.06;;;-141.02;100.00
8477;BME280;4275;42.854;23.222;2023-08-01T05:29:56;46191.41;;;-141.02;100.00
8477;BME280;4275;42.854;23.222;2023-08-01T05:32:23;46339.38;;;-141.02;100.00
8477;BME280;4275;42.854;23.222;2023-08-01T05:34:51;46126.06;;;-141.02;100.00
8477;BME280;4275;42.854;23.222;2023-08-01T05:37:18;46131.84;;;-141.02;100.00
8477;BME280;4275;42.854;23.222;2023-08-01T05:39:45;45930.06;;;-141.02;99.94
8477;BME280;4275;42.854;23.222;2023-08-01T05:42:12;46093.41;;;-141.02;100.00
8477;BME280;4275;42.854;23.222;2023-08-01T05:44:39;45912.78;;;-141.02;98.49
8477;BME280;4275;42.854;23.222;2023-08-01T05:47:06;45726.41;;;-141.02;96.40
8477;BME280;4275;42.854;23.222;2023-08-01T05:49:34;46001.16;;;-141.02;95.31
8477;BME280;4275;42.854;23.222;2023-08-01T05:52:02;45964.66;;;-141.02;94.54
8477;BME280;4275;42.854;23.222;2023-08-01T05:54:29;45883.97;;;-141.02;93.85
8477;BME280;4275;42.854;23.222;2023-08-01T05:56:56;45947.38;;;-141.02;94.74
8477;BME280;4275;42.854;23.222;2023-08-01T05:59:23;45643.78;;;-141.02;91.39
8477;BME280;4275;42.854;23.222;2023-08-01T06:01:50;45388.25;;;-141.02;91.81
8477;BME280;4275;42.854;23.222;2023-08-01T06:04:17;45474.72;;;-141.02;91.99
8477;BME280;4275;42.854;23.222;2023-08-01T06:06:44;45467.03;;;-141.02;91.30
8477;BME280;4275;42.854;23.222;2023-08-01T06:09:13;45605.34;;;-141.02;91.10
8477;BME280;4275;42.854;23.222;2023-08-01T06:11:40;45474.72;;;-141.02;90.16
8477;BME280;4275;42.854;23.222;2023-08-01T06:14:07;45345.97;;;-141.02;91.91
8477;BME280;4275;42.854;23.222;2023-08-01T06:16:34;45632.25;;;-141.02;92.23
8477;BME280;4275;42.854;23.222;2023-08-01T06:19:01;45438.19;;;-141.02;90.83
8477;BME280;4275;42.854;23.222;2023-08-01T06:21:28;45722.56;;;-141.02;91.10
8477;BME280;4275;42.854;23.222;2023-08-01T06:23:55;46008.84;;;-141.02;89.51
8477;BME280;4275;42.854;23.222;2023-08-01T06:26:24;45686.06;;;-141.02;91.36
8477;BME280;4275;42.854;23.222;2023-08-01T06:28:51;45616.88;;;-141.02;89.59
8477;BME280;4275;42.854;23.222;2023-08-01T06:31:19;45930.06;;;-141.02;92.04
8477;BME280;4275;42.854;23.222;2023-08-01T06:33:46;45751.38;;;-141.02;89.76
8477;BME280;4275;42.854;23.222;2023-08-01T06:36:13;45782.13;;;-141.02;88.73
8477;BME280;4275;42.854;23.222;2023-08-01T06:38:42;45755.22;;;-141.02;88.97
8477;BME280;4275;42.854;23.222;2023-08-01T06:41:09;45760.97;;;-141.02;87.92
8477;BME280;4275;42.854;23.222;2023-08-01T06:43:37;45643.78;;;-141.02;87.39
8477;BME280;4275;42.854;23.222;2023-08-01T06:46:04;45684.13;;;-141.02;87.38
8477;BME280;4275;42.854;23.222;2023-08-01T06:48:31;45728.31;;;-141.02;86.47
8477;BME280;4275;42.854;23.222;2023-08-01T06:51:00;45643.78;;;-141.02;85.41
8477;BME280;4275;42.854;23.222;2023-08-01T06:53:28;46122.22;;;-141.02;85.01
8477;BME280;4275;42.854;23.222;2023-08-01T06:55:55;46054.97;;;-141.02;82.25
8477;BME280;4275;42.854;23.222;2023-08-01T06:58:22;46062.66;;;-141.02;82.05
8477;BME280;4275;42.854;23.222;2023-08-01T07:00:50;45943.53;;;-141.02;82.46
8477;BME280;4275;42.854;23.222;2023-08-01T07:03:17;45591.91;;;-141.02;82.76
8477;BME280;4275;42.854;23.222;2023-08-01T07:05:44;45603.44;;;-141.02;81.50
8477;BME280;4275;42.854;23.222;2023-08-01T07:08:11;45803.25;;;-141.02;82.20
8477;BME280;4275;42.854;23.222;2023-08-01T07:10:38;46268.28;;;-141.02;80.17
8477;BME280;4275;42.854;23.222;2023-08-01T07:13:05;46054.97;;;-141.02;78.60
8477;BME280;4275;42.854;23.222;2023-08-01T07:15:33;45697.56;;;-141.02;78.15
8477;BME280;4275;42.854;23.222;2023-08-01T07:18:02;45693.75;;;-141.02;77.53
8477;BME280;4275;42.854;23.222;2023-08-01T07:20:29;46095.31;;;-141.02;76.86
8477;BME280;4275;42.854;23.222;2023-08-01T07:22:56;46691.06;;;-141.02;76.45
8477;BME280;4275;42.854;23.222;2023-08-01T07:25:23;45947.38;;;-141.02;74.81
8477;BME280;4275;42.854;23.222;2023-08-01T07:27:50;46177.97;;;-141.02;75.44
8477;BME280;4275;42.854;23.222;2023-08-01T07:30:18;45978.13;;;-141.02;73.81
8477;BME280;4275;42.854;23.222;2023-08-01T07:32:44;46570.00;;;-141.02;73.89
8477;BME280;4275;42.854;23.222;2023-08-01T07:35:14;46270.19;;;-141.02;71.66
8477;BME280;4275;42.854;23.222;2023-08-01T07:37:41;45968.50;;;-141.02;70.49
8477;BME280;4275;42.854;23.222;2023-08-01T07:40:09;45666.84;;;-141.02;69.84
8477;BME280;4275;42.854;23.222;2023-08-01T07:42:36;45985.81;;;-141.02;69.12
8477;BME280;4275;42.854;23.222;2023-08-01T07:45:04;45737.94;;;-141.02;68.98
8477;BME280;4275;42.854;23.222;2023-08-01T07:47:32;46224.06;;;-141.02;67.20
8477;BME280;4275;42.854;23.222;2023-08-01T07:49:59;46258.66;;;-141.02;66.14
8477;BME280;4275;42.854;23.222;2023-08-01T07:52:28;45912.78;;;-141.02;67.61
8477;BME280;4275;42.854;23.222;2023-08-01T07:54:55;46156.81;;;-141.02;66.00
8477;BME280;4275;42.854;23.222;2023-08-01T07:57:24;45947.38;;;-141.02;63.78
8477;BME280;4275;42.854;23.222;2023-08-01T07:59:51;45524.66;;;-141.02;64.68
8477;BME280;4275;42.854;23.222;2023-08-01T08:02:18;45803.25;;;-141.02;63.67
8477;BME280;4275;42.854;23.222;2023-08-01T08:04:45;45405.53;;;-141.02;62.17
8477;BME280;4275;42.854;23.222;2023-08-01T08:07:12;45434.34;;;-141.02;63.55
8477;BME280;4275;42.854;23.222;2023-08-01T08:09:40;45449.72;;;-141.02;63.29
8477;BME280;4275;42.854;23.222;2023-08-01T08:12:07;46037.69;;;-141.02;62.53
8477;BME280;4275;42.854;23.222;2023-08-01T08:14:34;45639.94;;;-141.02;60.14
8477;BME280;4275;42.854;23.222;2023-08-01T08:17:01;45457.41;;;-141.02;61.36
8477;BME280;4275;42.854;23.222;2023-08-01T08:19:29;45009.78;;;-141.02;59.85
8477;BME280;4275;42.854;23.222;2023-08-01T08:21:55;45413.22;;;-141.02;60.65
8477;BME280;4275;42.854;23.222;2023-08-01T08:24:23;45198.06;;;-141.02;59.24
8477;BME280;4275;42.854;23.222;2023-08-01T08:26:51;45501.59;;;-141.02;59.54
8477;BME280;4275;42.854;23.222;2023-08-01T08:29:18;44218.44;;;-141.02;60.93
8477;BME280;4275;42.854;23.222;2023-08-01T08:31:45;45025.16;;;-141.02;61.11
8477;BME280;4275;42.854;23.222;2023-08-01T08:34:12;45286.44;;;-141.02;58.76
8477;BME280;4275;42.854;23.222;2023-08-01T08:36:39;44646.75;;;-141.02;58.05
8477;BME280;4275;42.854;23.222;2023-08-01T08:39:06;44326.00;;;-141.02;58.39
8477;BME280;4275;42.854;23.222;2023-08-01T08:41:37;44239.56;;;-141.02;57.44
8477;BME280;4275;42.854;23.222;2023-08-01T08:44:07;44437.38;;;-141.02;58.94
8477;BME280;4275;42.854;23.222;2023-08-01T08:46:40;44537.25;;;-141.02;58.62
8477;BME280;4275;42.854;23.222;2023-08-01T08:49:07;44256.84;;;-141.02;59.13
8477;BME280;4275;42.854;23.222;2023-08-01T08:51:36;44606.41;;;-141.02;59.07
8477;BME280;4275;42.854;23.222;2023-08-01T08:54:04;44788.88;;;-141.02;58.10
8477;BME280;4275;42.854;23.222;2023-08-01T08:56:33;43984.16;;;-141.02;58.40
8477;BME280;4275;42.854;23.222;2023-08-01T08:59:00;44349.03;;;-141.02;60.21
8477;BME280;4275;42.854;23.222;2023-08-01T09:01:31;44233.81;;;-141.02;57.72
8477;BME280;4275;42.854;23.222;2023-08-01T09:03:59;44283.75;;;-141.02;56.32
8477;BME280;4275;42.854;23.222;2023-08-01T09:06:29;44552.63;;;-141.02;56.35
8477;BME280;4275;42.854;23.222;2023-08-01T09:09:02;44554.56;;;-141.02;56.17
8477;BME280;4275;42.854;23.222;2023-08-01T09:11:38;44014.88;;;-141.02;54.91
8477;BME280;4275;42.854;23.222;2023-08-01T09:14:05;43999.50;;;-141.02;54.13
8477;BME280;4275;42.854;23.222;2023-08-01T09:16:34;43980.31;;;-141.02;54.57
8477;BME280;4275;42.854;23.222;2023-08-01T09:19:02;43842.03;;;-141.02;55.46
8477;BME280;4275;42.854;23.222;2023-08-01T09:21:31;43713.38;;;-141.02;55.24
8477;BME280;4275;42.854;23.222;2023-08-01T09:24:08;43650.00;;;-141.02;54.79
8477;BME280;4275;42.854;23.222;2023-08-01T09:26:36;44229.97;;;-141.02;54.85
8477;BME280;4275;42.854;23.222;2023-08-01T09:29:03;44166.59;;;-141.02;54.35
8477;BME280;4275;42.854;23.222;2023-08-01T09:31:31;43865.09;;;-141.02;54.15
8477;BME280;4275;42.854;23.222;2023-08-01T09:34:01;43615.44;;;-141.02;53.44
8477;BME280;4275;42.854;23.222;2023-08-01T09:36:30;43843.97;;;-141.02;54.33
8477;BME280;4275;42.854;23.222;2023-08-01T09:38:58;43619.28;;;-141.02;53.95
8477;BME280;4275;42.854;23.222;2023-08-01T09:41:25;43961.09;;;-141.02;53.70
8477;BME280;4275;42.854;23.222;2023-08-01T09:43:53;44210.75;;;-141.02;52.64
8477;BME280;4275;42.854;23.222;2023-08-01T09:46:20;43891.97;;;-141.02;50.06
8477;BME280;4275;42.854;23.222;2023-08-01T09:48:47;43646.16;;;-141.02;51.25
8477;BME280;4275;42.854;23.222;2023-08-01T09:51:17;43523.28;;;-141.02;51.84
8477;BME280;4275;42.854;23.222;2023-08-01T09:53:49;43490.63;;;-141.02;51.20
8477;BME280;4275;42.854;23.222;2023-08-01T09:56:19;43419.59;;;-141.02;51.54
8477;BME280;4275;42.854;23.222;2023-08-01T09:58:47;43600.09;;;-141.02;50.54
8477;BME280;4275;42.854;23.222;2023-08-01T10:01:16;43715.28;;;-141.02;50.88
8477;BME280;4275;42.854;23.222;2023-08-01T10:03:45;43703.78;;;-141.02;50.09
8477;BME280;4275;42.854;23.222;2023-08-01T10:06:18;43799.78;;;-141.02;50.02
8477;BME280;4275;42.854;23.222;2023-08-01T10:08:46;43530.97;;;-141.02;50.57
8477;BME280;4275;42.854;23.222;2023-08-01T10:11:14;43602.00;;;-141.02;50.80
8477;BME280;4275;42.854;23.222;2023-08-01T10:13:42;43849.72;;;-141.02;51.76
8477;BME280;4275;42.854;23.222;2023-08-01T10:16:09;43530.97;;;-141.02;51.46
8477;BME280;4275;42.854;23.222;2023-08-01T10:18:37;43565.53;;;-141.02;51.63
8477;BME280;4275;42.854;23.222;2023-08-01T10:21:05;43659.59;;;-141.02;51.43
8477;BME280;4275;42.854;23.222;2023-08-01T10:23:35;43486.78;;;-141.02;51.98
8477;BME280;4275;42.854;23.222;2023-08-01T10:26:05;43753.69;;;-141.02;52.56
8477;BME280;4275;42.854;23.222;2023-08-01T10:28:32;43776.75;;;-141.02;52.34
8477;BME280;4275;42.854;23.222;2023-08-01T10:31:09;43694.19;;;-141.02;51.75
8477;BME280;4275;42.854;23.222;2023-08-01T10:33:38;43772.91;;;-141.02;51.08
8477;BME280;4275;42.854;23.222;2023-08-01T10:36:15;44037.91;;;-141.02;51.47
8477;BME280;4275;42.854;23.222;2023-08-01T10:38:51;43872.75;;;-141.02;50.22
8477;BME280;4275;42.854;23.222;2023-08-01T10:41:25;44155.06;;;-141.02;50.61
8477;BME280;4275;42.854;23.222;2023-08-01T10:44:03;43805.56;;;-141.02;50.12
8477;BME280;4275;42.854;23.222;2023-08-01T10:46:45;44060.97;;;-141.02;51.54
8477;BME280;4275;42.854;23.222;2023-08-01T10:49:12;43805.56;;;-141.02;51.15
8477;BME280;4275;42.854;23.222;2023-08-01T10:51:39;44064.81;;;-141.02;51.82
8477;BME280;4275;42.854;23.222;2023-08-01T10:54:18;43888.13;;;-141.02;51.10
8477;BME280;4275;42.854;23.222;2023-08-01T10:56:45;43803.63;;;-141.02;50.58
8477;BME280;4275;42.854;23.222;2023-08-01T10:59:13;43867.00;;;-141.02;50.52
8477;BME280;4275;42.854;23.222;2023-08-01T11:01:48;43784.44;;;-141.02;50.67
8477;BME280;4275;42.854;23.222;2023-08-01T11:04:16;43611.59;;;-141.02;50.13
8477;BME280;4275;42.854;23.222;2023-08-01T11:06:47;43822.84;;;-141.02;49.60
8477;BME280;4275;42.854;23.222;2023-08-01T11:09:18;43484.88;;;-141.02;51.46
8477;BME280;4275;42.854;23.222;2023-08-01T11:11:46;43519.44;;;-141.02;51.02
8477;BME280;4275;42.854;23.222;2023-08-01T11:14:15;43561.69;;;-141.02;51.22
8477;BME280;4275;42.854;23.222;2023-08-01T11:16:43;43757.53;;;-141.02;50.55
8477;BME280;4275;42.854;23.222;2023-08-01T11:19:21;43640.41;;;-141.02;51.65
8477;BME280;4275;42.854;23.222;2023-08-01T11:21:48;43628.88;;;-141.02;51.69
8477;BME280;4275;42.854;23.222;2023-08-01T11:24:17;43742.19;;;-141.02;50.59
8477;BME280;4275;42.854;23.222;2023-08-01T11:26:46;43995.66;;;-141.02;50.13
8477;BME280;4275;42.854;23.222;2023-08-01T11:29:14;44034.06;;;-141.02;48.78
8477;BME280;4275;42.854;23.222;2023-08-01T11:31:52;43600.09;;;-141.02;50.24
8477;BME280;4275;42.854;23.222;2023-08-01T11:34:19;43577.03;;;-141.02;51.04
8477;BME280;4275;42.854;23.222;2023-08-01T11:36:47;43709.53;;;-141.02;49.35
8477;BME280;4275;42.854;23.222;2023-08-01T11:39:14;43705.69;;;-141.02;49.84
8477;BME280;4275;42.854;23.222;2023-08-01T11:41:44;43567.44;;;-141.02;50.36
8477;BME280;4275;42.854;23.222;2023-08-01T11:44:11;43678.81;;;-141.02;50.10
8477;BME280;4275;42.854;23.222;2023-08-01T11:46:39;43765.22;;;-141.02;49.11
8477;BME280;4275;42.854;23.222;2023-08-01T11:49:07;43830.50;;;-141.02;49.58
8477;BME280;4275;42.854;23.222;2023-08-01T11:51:39;43817.06;;;-141.02;48.84
8477;BME280;4275;42.854;23.222;2023-08-01T11:54:07;43688.41;;;-141.02;48.96
8477;BME280;4275;42.854;23.222;2023-08-01T11:56:36;43746.03;;;-141.02;48.79
8477;BME280;4275;42.854;23.222;2023-08-01T11:59:09;43479.13;;;-141.02;50.31
8477;BME280;4275;42.854;23.222;2023-08-01T12:01:39;43530.97;;;-141.02;50.74
8477;BME280;4275;42.854;23.222;2023-08-01T12:04:07;43563.59;;;-141.02;50.70
8477;BME280;4275;42.854;23.222;2023-08-01T12:06:34;43577.03;;;-141.02;50.10
8477;BME280;4275;42.854;23.222;2023-08-01T12:09:08;43811.31;;;-141.02;49.71
8477;BME280;4275;42.854;23.222;2023-08-01T12:11:35;43957.25;;;-141.02;48.76
8477;BME280;4275;42.854;23.222;2023-08-01T12:14:04;43865.09;;;-141.02;47.59
8477;BME280;4275;42.854;23.222;2023-08-01T12:16:33;44264.53;;;-141.02;48.70
8477;BME280;4275;42.854;23.222;2023-08-01T12:19:00;43882.38;;;-141.02;46.95
8477;BME280;4275;42.854;23.222;2023-08-01T12:21:28;43842.03;;;-141.02;47.40
8477;BME280;4275;42.854;23.222;2023-08-01T12:23:54;43757.53;;;-141.02;47.70
8477;BME280;4275;42.854;23.222;2023-08-01T12:26:22;43784.44;;;-141.02;47.69
8477;BME280;4275;42.854;23.222;2023-08-01T12:28:50;43865.09;;;-141.02;47.59
8477;BME280;4275;42.854;23.222;2023-08-01T12:31:17;43592.41;;;-141.02;47.55
8477;BME280;4275;42.854;23.222;2023-08-01T12:33:48;43684.56;;;-141.02;49.80
8477;BME280;4275;42.854;23.222;2023-08-01T12:36:15;43769.06;;;-141.02;47.91
8477;BME280;4275;42.854;23.222;2023-08-01T12:38:42;43661.53;;;-141.02;46.96
8477;BME280;4275;42.854;23.222;2023-08-01T12:41:09;43770.97;;;-141.02;47.14
8477;BME280;4275;42.854;23.222;2023-08-01T12:43:36;43759.47;;;-141.02;46.72
8477;BME280;4275;42.854;23.222;2023-08-01T12:46:04;43642.31;;;-141.02;46.35
8477;BME280;4275;42.854;23.222;2023-08-01T12:48:31;43506.00;;;-141.02;47.97
8477;BME280;4275;42.854;23.222;2023-08-01T12:50:59;43527.13;;;-141.02;46.90
8477;BME280;4275;42.854;23.222;2023-08-01T12:53:26;43444.56;;;-141.02;46.79
8477;BME280;4275;42.854;23.222;2023-08-01T12:55:53;43475.28;;;-141.02;47.51
8477;BME280;4275;42.854;23.222;2023-08-01T12:58:20;43454.16;;;-141.02;47.20
8477;BME280;4275;42.854;23.222;2023-08-01T13:00:47;43580.88;;;-141.02;45.68
8477;BME280;4275;42.854;23.222;2023-08-01T13:03:14;43600.09;;;-141.02;44.69
8477;BME280;4275;42.854;23.222;2023-08-01T13:05:42;43669.22;;;-141.02;44.93
8477;BME280;4275;42.854;23.222;2023-08-01T13:08:10;43496.41;;;-141.02;46.41
8477;BME280;4275;42.854;23.222;2023-08-01T13:10:38;43484.88;;;-141.02;46.38
8477;BME280;4275;42.854;23.222;2023-08-01T13:13:06;43688.41;;;-141.02;45.97
8477;BME280;4275;42.854;23.222;2023-08-01T13:15:33;43715.28;;;-141.02;44.08
8477;BME280;4275;42.854;23.222;2023-08-01T13:18:00;43722.97;;;-141.02;43.86
8477;BME280;4275;42.854;23.222;2023-08-01T13:20:27;43734.50;;;-141.02;44.14
8477;BME280;4275;42.854;23.222;2023-08-01T13:22:54;43519.44;;;-141.02;43.56
8477;BME280;4275;42.854;23.222;2023-08-01T13:25:23;43529.03;;;-141.02;44.01
8477;BME280;4275;42.854;23.222;2023-08-01T13:27:50;43550.16;;;-141.02;44.77
8477;BME280;4275;42.854;23.222;2023-08-01T13:30:17;43534.78;;;-141.02;45.17
8477;BME280;4275;42.854;23.222;2023-08-01T13:32:44;43521.34;;;-141.02;44.68
8477;BME280;4275;42.854;23.222;2023-08-01T13:35:12;43598.16;;;-141.02;45.83
8477;BME280;4275;42.854;23.222;2023-08-01T13:37:39;43561.69;;;-141.02;45.40
8477;BME280;4275;42.854;23.222;2023-08-01T13:40:07;43653.84;;;-141.02;44.59